createdAt,value
2017-03-23T00:00:39.920Z,6.4
2017-03-23T00:01:42.131Z,6.4
2017-03-23T00:02:44.971Z,6.4
2017-03-23T00:03:48.060Z,6.4
2017-03-23T00:04:50.398Z,6.4
2017-03-23T00:05:52.738Z,6.3
2017-03-23T00:06:55.593Z,6.3
2017-03-23T00:10:03.233Z,6.3
2017-03-23T00:11:05.942Z,6.3
2017-03-23T00:12:08.147Z,6.3
2017-03-23T00:13:10.851Z,6.3
2017-03-23T00:14:13.730Z,6.3
2017-03-23T00:15:16.193Z,6.3
2017-03-23T00:16:19.035Z,6.3
2017-03-23T00:17:21.374Z,6.3
2017-03-23T00:18:24.216Z,6.3
2017-03-23T00:19:26.417Z,6.3
2017-03-23T00:20:29.511Z,6.3
2017-03-23T00:21:31.583Z,6.3
2017-03-23T00:23:37.335Z,6.3
2017-03-23T00:24:39.541Z,6.3
2017-03-23T00:25:42.637Z,6.3
2017-03-23T00:26:44.904Z,6.3
2017-03-23T00:27:47.749Z,6.3
2017-03-23T00:28:49.989Z,6.3
2017-03-23T00:29:52.828Z,6.3
2017-03-23T00:30:55.420Z,6.3
2017-03-23T00:31:57.622Z,6.3
2017-03-23T00:33:00.470Z,6.3
2017-03-23T00:34:03.314Z,6.3
2017-03-23T00:35:05.659Z,6.3
2017-03-23T00:37:11.022Z,6.3
2017-03-23T00:38:13.729Z,6.3
2017-03-23T00:39:16.625Z,6.3
2017-03-23T00:40:18.462Z,6.3
2017-03-23T00:41:21.308Z,6.3
2017-03-23T00:42:23.760Z,6.3
2017-03-23T00:43:26.599Z,6.3
2017-03-23T00:44:28.800Z,6.3
2017-03-23T00:46:34.423Z,6.3
2017-03-23T00:47:37.062Z,6.3
2017-03-23T00:48:39.263Z,6.3
2017-03-23T00:49:41.969Z,6.3
2017-03-23T00:50:44.678Z,6.2
2017-03-23T00:51:47.383Z,6.2
2017-03-23T00:52:49.884Z,6.2
2017-03-23T00:53:52.223Z,6.2
2017-03-23T00:54:55.064Z,6.2
2017-03-23T00:55:57.770Z,6.2
2017-03-23T00:57:00.484Z,6.2
2017-03-23T00:58:03.078Z,6.2
2017-03-23T00:59:05.425Z,6.2
2017-03-23T01:00:08.137Z,6.2
2017-03-23T01:01:10.478Z,6.2
2017-03-23T01:02:13.323Z,6.2
2017-03-23T01:04:18.585Z,6.2
2017-03-23T01:05:20.921Z,6.2
2017-03-23T01:06:23.758Z,6.2
2017-03-23T01:07:25.960Z,6.2
2017-03-23T01:09:31.323Z,6.2
2017-03-23T01:10:34.167Z,6.2
2017-03-23T01:11:36.372Z,6.2
2017-03-23T01:12:39.216Z,6.2
2017-03-23T01:13:41.595Z,6.2
2017-03-23T01:14:44.695Z,6.1
2017-03-23T01:15:47.341Z,6.1
2017-03-23T01:16:49.410Z,6.1
2017-03-23T01:17:52.252Z,6.1
2017-03-23T01:18:54.593Z,6.1
2017-03-23T01:19:57.552Z,6.1
2017-03-23T01:20:59.756Z,6.1
2017-03-23T01:22:02.600Z,6.1
2017-03-23T01:23:05.308Z,6.1
2017-03-23T01:25:10.806Z,6.1
2017-03-23T01:26:13.018Z,6.2
2017-03-23T01:27:15.359Z,6.1
2017-03-23T01:28:18.201Z,6.1
2017-03-23T01:29:20.400Z,6.1
2017-03-23T01:31:26.185Z,6.1
2017-03-23T01:32:28.526Z,6.2
2017-03-23T01:33:30.726Z,6.1
2017-03-23T01:34:34.127Z,6.2
2017-03-23T01:35:36.469Z,6.1
2017-03-23T01:36:39.057Z,6.1
2017-03-23T01:37:41.267Z,6.1
2017-03-23T01:38:44.111Z,6.1
2017-03-23T01:39:46.317Z,6.1
2017-03-23T01:40:49.160Z,6.1
2017-03-23T01:41:52.259Z,6.1
2017-03-23T01:42:54.460Z,6.1
2017-03-23T01:43:57.166Z,6.1
2017-03-23T01:44:59.870Z,6.1
2017-03-23T01:46:02.215Z,6.1
2017-03-23T01:47:05.314Z,6.1
2017-03-23T01:48:07.653Z,6.1
2017-03-23T01:49:09.853Z,6.1
2017-03-23T01:50:12.690Z,6.1
2017-03-23T01:51:15.053Z,6.1
2017-03-23T01:52:18.011Z,6.1
2017-03-23T01:53:20.077Z,6.1
2017-03-23T01:54:22.920Z,6.1
2017-03-23T01:55:25.770Z,6.1
2017-03-23T01:56:28.113Z,6.1
2017-03-23T01:58:33.610Z,6
2017-03-23T01:59:35.951Z,6.1
2017-03-23T02:00:38.665Z,6.1
2017-03-23T02:01:41.004Z,6
2017-03-23T02:02:43.846Z,6
2017-03-23T02:03:46.309Z,6
2017-03-23T02:04:49.570Z,6
2017-03-23T02:05:51.404Z,6
2017-03-23T02:06:54.118Z,6
2017-03-23T02:07:56.823Z,6
2017-03-23T02:08:59.413Z,6.1
2017-03-23T02:10:01.748Z,6.1
2017-03-23T02:11:04.589Z,6
2017-03-23T02:12:07.300Z,6.1
2017-03-23T02:13:09.641Z,6
2017-03-23T02:14:12.740Z,6.1
2017-03-23T02:15:14.942Z,6
2017-03-23T02:16:17.139Z,6
2017-03-23T02:17:19.979Z,6
2017-03-23T02:18:22.823Z,6
2017-03-23T02:19:25.450Z,6
2017-03-23T02:20:27.785Z,6
2017-03-23T02:21:30.633Z,6
2017-03-23T02:22:32.972Z,6
2017-03-23T02:23:35.826Z,6
2017-03-23T02:24:38.283Z,6
2017-03-23T02:25:40.623Z,6
2017-03-23T02:26:43.461Z,6
2017-03-23T02:27:46.304Z,6
2017-03-23T02:28:49.205Z,6
2017-03-23T02:29:51.291Z,6
2017-03-23T02:30:53.638Z,6
2017-03-23T02:31:56.482Z,6
2017-03-23T02:32:58.687Z,6
2017-03-23T02:34:01.527Z,6
2017-03-23T02:35:04.620Z,6
2017-03-23T02:36:06.828Z,6
2017-03-23T02:37:09.098Z,6
2017-03-23T02:38:11.942Z,6
2017-03-23T02:39:15.354Z,6
2017-03-23T02:40:17.442Z,6
2017-03-23T02:41:19.820Z,6
2017-03-23T02:42:22.156Z,6
2017-03-23T02:43:24.907Z,6
2017-03-23T02:44:27.747Z,6
2017-03-23T02:45:30.338Z,6
2017-03-23T02:46:32.677Z,6
2017-03-23T02:47:35.381Z,6
2017-03-23T02:48:37.717Z,6
2017-03-23T02:49:40.565Z,6
2017-03-23T02:50:43.165Z,6
2017-03-23T02:51:45.505Z,6
2017-03-23T02:52:48.907Z,6
2017-03-23T02:53:50.606Z,6
2017-03-23T02:54:53.310Z,6
2017-03-23T02:55:56.407Z,6
2017-03-23T02:56:58.743Z,6
2017-03-23T02:58:01.084Z,6
2017-03-23T02:59:04.347Z,6
2017-03-23T03:00:06.545Z,6
2017-03-23T03:01:09.008Z,6
2017-03-23T03:02:11.851Z,6
2017-03-23T03:03:14.193Z,6
2017-03-23T03:04:17.034Z,6
2017-03-23T03:05:19.370Z,6
2017-03-23T03:06:22.465Z,6
2017-03-23T03:08:27.209Z,6
2017-03-23T03:09:30.051Z,6
2017-03-23T03:10:32.397Z,6
2017-03-23T03:11:35.542Z,6
2017-03-23T03:12:37.374Z,6
2017-03-23T03:13:39.944Z,6
2017-03-23T03:14:42.651Z,6
2017-03-23T03:15:45.363Z,6
2017-03-23T03:17:50.770Z,6
2017-03-23T03:19:55.883Z,6
2017-03-23T03:20:58.088Z,6
2017-03-23T03:22:00.932Z,6
2017-03-23T03:23:04.026Z,6
2017-03-23T03:24:06.369Z,6
2017-03-23T03:25:09.265Z,6
2017-03-23T03:26:11.102Z,6
2017-03-23T03:27:13.945Z,6
2017-03-23T03:28:17.461Z,5.9
2017-03-23T03:29:19.300Z,5.9
2017-03-23T03:30:21.651Z,5.9
2017-03-23T03:31:24.497Z,5.9
2017-03-23T03:32:26.577Z,5.9
2017-03-23T03:33:29.545Z,5.9
2017-03-23T03:34:32.259Z,5.9
2017-03-23T03:35:34.607Z,5.9
2017-03-23T03:36:37.457Z,5.9
2017-03-23T03:37:39.672Z,5.9
2017-03-23T03:38:42.776Z,5.9
2017-03-23T03:39:44.992Z,5.9
2017-03-23T03:40:47.714Z,5.9
2017-03-23T03:41:50.066Z,5.9
2017-03-23T03:42:52.919Z,5.9
2017-03-23T03:43:55.515Z,5.8
2017-03-23T03:44:57.861Z,5.8
2017-03-23T03:46:00.718Z,5.8
2017-03-23T03:48:05.975Z,5.8
2017-03-23T03:49:08.573Z,5.8
2017-03-23T03:50:10.918Z,5.7
2017-03-23T03:51:13.767Z,5.7
2017-03-23T03:52:15.981Z,5.6
2017-03-23T03:53:18.839Z,5.6
2017-03-23T03:54:21.303Z,5.6
2017-03-23T03:55:24.150Z,5.6
2017-03-23T03:56:26.363Z,5.6
2017-03-23T03:57:29.214Z,5.6
2017-03-23T03:58:31.559Z,5.6
2017-03-23T03:59:34.594Z,5.6
2017-03-23T04:00:36.947Z,5.6
2017-03-23T04:01:39.228Z,5.6
2017-03-23T04:02:41.810Z,5.6
2017-03-23T04:03:44.524Z,5.5
2017-03-23T04:04:47.493Z,5.5
2017-03-23T04:05:49.708Z,5.5
2017-03-23T04:06:52.423Z,5.5
2017-03-23T04:07:54.634Z,5.5
2017-03-23T04:08:57.349Z,5.5
2017-03-23T04:10:00.448Z,5.5
2017-03-23T04:11:02.851Z,5.5
2017-03-23T04:12:05.198Z,5.5
2017-03-23T04:13:08.049Z,5.4
2017-03-23T04:14:10.258Z,5.4
2017-03-23T04:15:13.360Z,5.4
2017-03-23T04:16:15.709Z,5.4
2017-03-23T04:17:18.425Z,5.3
2017-03-23T04:18:20.768Z,5.3
2017-03-23T04:19:23.483Z,5.4
2017-03-23T04:20:26.076Z,5.4
2017-03-23T04:21:28.423Z,5.4
2017-03-23T04:22:30.999Z,5.4
2017-03-23T04:23:33.712Z,5.3
2017-03-23T04:24:36.559Z,5.3
2017-03-23T04:25:39.216Z,5.3
2017-03-23T04:26:41.577Z,5.3
2017-03-23T04:27:43.785Z,5.3
2017-03-23T04:28:46.498Z,5.3
2017-03-23T04:29:49.223Z,5.3
2017-03-23T04:30:52.325Z,5.3
2017-03-23T04:31:54.537Z,5.3
2017-03-23T04:32:56.881Z,5.3
2017-03-23T04:33:59.730Z,5.3
2017-03-23T04:35:02.079Z,5.2
2017-03-23T04:36:05.180Z,5.2
2017-03-23T04:37:07.147Z,5.1
2017-03-23T04:38:09.994Z,5.1
2017-03-23T04:39:12.707Z,5.2
2017-03-23T04:40:15.054Z,5.2
2017-03-23T04:41:18.155Z,5.1
2017-03-23T04:42:20.502Z,5.1
2017-03-23T04:43:22.853Z,5.1
2017-03-23T04:44:25.701Z,5.1
2017-03-23T04:45:28.044Z,5.1
2017-03-23T04:46:31.149Z,5.1
2017-03-23T04:47:32.992Z,5.1
2017-03-23T04:48:35.703Z,5.1
2017-03-23T04:49:38.419Z,5.1
2017-03-23T04:50:40.954Z,5.1
2017-03-23T04:51:44.054Z,5.1
2017-03-23T04:52:46.273Z,5.1
2017-03-23T04:53:48.618Z,5.1
2017-03-23T04:54:51.334Z,5.1
2017-03-23T04:55:54.609Z,5.1
2017-03-23T04:56:56.701Z,5.1
2017-03-23T04:57:59.045Z,5.1
2017-03-23T04:59:01.762Z,5.1
2017-03-23T05:00:04.112Z,5.1
2017-03-23T05:01:06.832Z,5.1
2017-03-23T05:02:09.437Z,5.2
2017-03-23T05:03:11.513Z,5.1
2017-03-23T05:04:15.292Z,5.1
2017-03-23T05:05:17.136Z,5.1
2017-03-23T05:06:19.346Z,5.1
2017-03-23T05:07:22.885Z,5.1
2017-03-23T05:08:25.295Z,5.1
2017-03-23T05:09:27.369Z,5.1
2017-03-23T05:10:30.220Z,5.1
2017-03-23T05:11:32.435Z,5.1
2017-03-23T05:12:35.592Z,5.1
2017-03-23T05:13:37.804Z,5.1
2017-03-23T05:14:40.152Z,5.1
2017-03-23T05:15:43.008Z,5.1
2017-03-23T05:16:45.350Z,5.1
2017-03-23T05:17:48.451Z,5.2
2017-03-23T05:18:50.659Z,5.2
2017-03-23T05:19:53.371Z,5.1
2017-03-23T05:20:55.584Z,5.2
2017-03-23T05:21:58.296Z,5.2
2017-03-23T05:23:01.397Z,5.2
2017-03-23T05:24:03.739Z,5.3
2017-03-23T05:25:06.085Z,5.2
2017-03-23T05:26:08.940Z,5.2
2017-03-23T05:27:11.323Z,5.2
2017-03-23T05:28:13.918Z,5.3
2017-03-23T05:29:16.263Z,5.2
2017-03-23T05:30:18.844Z,5.2
2017-03-23T05:31:21.699Z,5.3
2017-03-23T05:32:24.047Z,5.3
2017-03-23T05:33:27.148Z,5.3
2017-03-23T05:34:29.504Z,5.3
2017-03-23T05:35:31.847Z,5.3
2017-03-23T05:36:34.694Z,5.3
2017-03-23T05:37:37.299Z,5.3
2017-03-23T05:38:39.762Z,5.3
2017-03-23T05:39:42.473Z,5.3
2017-03-23T05:40:44.685Z,5.3
2017-03-23T05:41:47.544Z,5.3
2017-03-23T05:42:49.886Z,5.3
2017-03-23T05:43:52.719Z,5.3
2017-03-23T05:44:54.796Z,5.3
2017-03-23T05:45:57.645Z,5.3
2017-03-23T05:47:00.493Z,5.3
2017-03-23T05:48:02.845Z,5.3
2017-03-23T05:49:05.500Z,5.2
2017-03-23T05:50:07.849Z,5.3
2017-03-23T05:51:10.703Z,5.3
2017-03-23T05:52:13.054Z,5.3
2017-03-23T05:57:26.332Z,5.5
2017-03-23T05:58:28.678Z,5.5
2017-03-23T05:59:30.889Z,5.4
2017-03-23T06:00:33.737Z,5.5
2017-03-23T06:01:36.151Z,5.4
2017-03-23T06:02:39.048Z,5.4
2017-03-23T06:03:41.627Z,5.4
2017-03-23T06:04:43.971Z,5.4
2017-03-23T06:05:46.684Z,5.4
2017-03-23T06:06:49.532Z,5.4
2017-03-23T06:07:52.131Z,5.4
2017-03-23T06:08:54.472Z,5.3
2017-03-23T06:09:56.820Z,5.4
2017-03-23T06:10:59.673Z,5.4
2017-03-23T06:12:02.019Z,5.4
2017-03-23T06:13:05.120Z,5.4
2017-03-23T06:14:07.472Z,5.4
2017-03-23T06:15:09.682Z,5.4
2017-03-23T06:16:12.531Z,5.4
2017-03-23T06:17:15.436Z,5.5
2017-03-23T06:18:17.904Z,5.4
2017-03-23T06:19:20.251Z,5.5
2017-03-23T06:20:22.851Z,5.4
2017-03-23T06:21:25.201Z,5.4
2017-03-23T06:22:27.923Z,5.3
2017-03-23T06:23:31.020Z,5.3
2017-03-23T06:25:35.767Z,5.4
2017-03-23T06:26:38.115Z,5.4
2017-03-23T06:27:40.961Z,5.5
2017-03-23T06:28:43.928Z,5.5
2017-03-23T06:30:48.681Z,5.5
2017-03-23T06:41:14.440Z,5.6
2017-03-23T06:43:19.555Z,5.5
2017-03-23T06:50:38.099Z,5.5
2017-03-23T06:51:40.446Z,5.5
2017-03-23T06:52:42.790Z,5.5
2017-03-23T06:53:45.564Z,5.6
2017-03-23T06:54:47.913Z,5.6
2017-03-23T06:55:18.555Z,5.6
2017-03-23T06:55:51.014Z,5.5
2017-03-23T06:56:52.726Z,5.5
2017-03-23T06:57:55.440Z,5.5
2017-03-23T06:58:58.159Z,5.6
2017-03-23T07:00:01.013Z,5.6
2017-03-23T07:01:03.609Z,5.6
2017-03-23T07:02:05.823Z,5.7
2017-03-23T07:03:08.675Z,5.6
2017-03-23T07:04:11.388Z,5.7
2017-03-23T07:06:16.389Z,5.7
2017-03-23T07:07:19.043Z,5.8
2017-03-23T07:08:21.391Z,6
2017-03-23T07:09:24.238Z,6.1
2017-03-23T07:10:26.517Z,6.3
2017-03-23T07:11:30.192Z,6.2
2017-03-23T07:12:32.035Z,6.2
2017-03-23T07:13:34.379Z,6.1
2017-03-23T07:14:37.789Z,6
2017-03-23T07:15:39.631Z,6
2017-03-23T07:16:42.600Z,6
2017-03-23T07:17:44.806Z,6.1
2017-03-23T07:18:47.151Z,6.3
2017-03-23T07:19:50.060Z,6.3
2017-03-23T07:20:52.271Z,6.3
2017-03-23T07:21:55.380Z,6.5
2017-03-23T07:22:57.722Z,6.5
2017-03-23T07:25:02.843Z,6.3
2017-03-23T07:26:05.567Z,6.3
2017-03-23T07:27:08.170Z,6.3
2017-03-23T07:28:10.380Z,6.4
2017-03-23T07:29:13.233Z,6.3
2017-03-23T07:30:15.578Z,6.5
2017-03-23T07:31:18.432Z,6.5
2017-03-23T07:32:21.038Z,6.5
2017-03-23T07:33:23.255Z,6.6
2017-03-23T07:34:26.105Z,6.6
2017-03-23T07:35:28.687Z,6.6
2017-03-23T07:36:31.070Z,6.8
2017-03-23T07:37:34.045Z,6.6
2017-03-23T07:38:36.260Z,6.8
2017-03-23T07:39:39.111Z,6.9
2017-03-23T07:40:41.460Z,6.9
2017-03-23T07:41:44.108Z,6.6
2017-03-23T07:42:47.216Z,6.5
2017-03-23T07:43:49.430Z,6.5
2017-03-23T07:44:51.774Z,6.6
2017-03-23T07:45:54.489Z,6.8
2017-03-23T07:46:57.339Z,6.6
2017-03-23T07:47:59.866Z,6.9
2017-03-23T07:49:02.115Z,6.8
2017-03-23T07:50:04.967Z,6.8
2017-03-23T07:52:10.227Z,6.8
2017-03-23T07:53:12.825Z,7
2017-03-23T07:54:14.905Z,7
2017-03-23T07:55:17.756Z,7.1
2017-03-23T07:56:20.603Z,7
2017-03-23T07:57:22.820Z,7
2017-03-23T07:58:26.535Z,7
2017-03-23T07:59:28.377Z,7.1
2017-03-23T08:00:30.588Z,7.1
2017-03-23T08:01:33.439Z,7.1
2017-03-23T08:02:36.156Z,6.9
2017-03-23T08:03:38.806Z,6.9
2017-03-23T08:05:43.559Z,7.1
2017-03-23T08:06:46.413Z,7
2017-03-23T08:07:48.768Z,7.1
2017-03-23T08:08:51.919Z,7.1
2017-03-23T08:09:54.264Z,7.2
2017-03-23T08:10:56.613Z,7.4
2017-03-23T08:11:59.459Z,7.5
2017-03-23T08:13:01.807Z,7.5
2017-03-23T08:14:04.969Z,7.6
2017-03-23T08:15:07.321Z,7.5
2017-03-23T08:16:09.670Z,7.6
2017-03-23T08:17:12.524Z,7.7
2017-03-23T08:19:17.446Z,7.7
2017-03-23T08:20:20.029Z,7.6
2017-03-23T08:21:22.880Z,7.6
2017-03-23T08:22:25.231Z,7.7
2017-03-23T08:23:28.087Z,7.6
2017-03-23T08:24:30.605Z,7.5
2017-03-23T08:25:32.952Z,7.5
2017-03-23T08:26:35.801Z,7.5
2017-03-23T08:27:38.151Z,7.6
2017-03-23T08:28:41.006Z,7.5
2017-03-23T08:29:43.660Z,7.5
2017-03-23T08:30:46.012Z,7.4
2017-03-23T08:31:48.723Z,7.3
2017-03-23T08:38:04.420Z,7.5
2017-03-23T08:43:17.685Z,7.3
2017-03-23T08:44:20.040Z,7.3
2017-03-23T08:45:22.944Z,7.3
2017-03-23T08:46:24.655Z,7.3
2017-03-23T08:50:35.488Z,7.3
2017-03-23T08:51:37.834Z,7.3
2017-03-23T08:54:46.132Z,7.3
2017-03-23T08:55:48.730Z,7.3
2017-03-23T09:07:17.140Z,7.2
2017-03-23T09:12:30.369Z,7.1
2017-03-23T09:15:37.523Z,6.8
2017-03-23T09:16:40.433Z,6.7
2017-03-23T09:20:50.682Z,6.8
2017-03-23T09:22:55.989Z,6.8
2017-03-23T09:23:58.338Z,6.8
2017-03-23T09:25:01.185Z,6.8
2017-03-23T09:26:03.649Z,6.8
2017-03-23T09:27:06.368Z,6.9
2017-03-23T09:29:11.621Z,7
2017-03-23T09:31:17.037Z,7
2017-03-23T09:33:21.662Z,7
2017-03-23T09:35:26.922Z,7.1
2017-03-23T09:36:30.024Z,7.1
2017-03-23T09:39:37.557Z,7.1
2017-03-23T09:40:39.909Z,7.1
2017-03-23T09:41:43.061Z,7.1
2017-03-23T09:42:45.409Z,7.1
2017-03-23T09:44:50.668Z,7.1
2017-03-23T09:45:53.232Z,7.1
2017-03-23T09:47:58.655Z,7
2017-03-23T09:49:01.003Z,7
2017-03-23T09:50:03.212Z,7
2017-03-23T09:52:08.465Z,7.1
2017-03-23T09:54:13.970Z,7.2
2017-03-23T09:55:16.313Z,7.2
2017-03-23T09:56:19.726Z,7.3
2017-03-23T09:57:21.570Z,7.3
2017-03-23T09:58:24.283Z,7.3
2017-03-23T09:59:26.879Z,7.3
2017-03-23T10:00:29.089Z,7.3
2017-03-23T10:01:31.940Z,7.3
2017-03-23T10:02:34.803Z,7.3
2017-03-23T10:03:37.154Z,7
2017-03-23T10:04:40.253Z,7
2017-03-23T10:05:42.602Z,7
2017-03-23T10:06:44.951Z,7
2017-03-23T10:07:47.798Z,7
2017-03-23T10:08:50.013Z,7
2017-03-23T10:09:53.114Z,7
2017-03-23T10:10:55.464Z,7
2017-03-23T10:13:00.728Z,6.9
2017-03-23T10:14:03.075Z,7
2017-03-23T10:15:06.181Z,7
2017-03-23T10:16:08.528Z,7
2017-03-23T10:17:10.750Z,7
2017-03-23T10:18:13.603Z,6.9
2017-03-23T10:19:15.951Z,6.8
2017-03-23T10:20:18.849Z,6.9
2017-03-23T10:21:21.198Z,6.8
2017-03-23T10:22:23.779Z,6.8
2017-03-23T10:23:26.626Z,6.8
2017-03-23T10:24:28.977Z,6.6
2017-03-23T10:25:32.079Z,6.6
2017-03-23T10:26:34.432Z,6.5
2017-03-23T10:27:36.782Z,6.6
2017-03-23T10:28:39.631Z,6.7
2017-03-23T10:29:41.980Z,6.7
2017-03-23T10:30:44.949Z,6.6
2017-03-23T10:31:47.295Z,6.5
2017-03-23T10:33:52.551Z,6.6
2017-03-23T10:34:55.266Z,6.7
2017-03-23T10:35:57.867Z,6.7
2017-03-23T10:37:00.216Z,6.8
2017-03-23T10:39:05.476Z,6.6
2017-03-23T10:41:11.173Z,6.6
2017-03-23T10:42:13.255Z,6.7
2017-03-23T10:43:16.008Z,6.7
2017-03-23T10:46:23.781Z,6.8
2017-03-23T10:47:26.134Z,6.8
2017-03-23T10:49:31.256Z,7
2017-03-23T10:51:36.766Z,7
2017-03-23T10:52:39.113Z,7
2017-03-23T10:53:41.962Z,7
2017-03-23T10:54:44.328Z,7
2017-03-23T10:55:47.178Z,7.1
2017-03-23T10:56:49.780Z,7.2
2017-03-23T10:57:51.990Z,7.2
2017-03-23T10:59:57.109Z,7.3
2017-03-23T11:00:59.827Z,7.3
2017-03-23T11:02:02.983Z,7.3
2017-03-23T11:03:05.196Z,7.4
2017-03-23T11:05:10.450Z,7.5
2017-03-23T11:07:15.824Z,7.5
2017-03-23T11:08:18.605Z,7.6
2017-03-23T11:10:23.358Z,7.8
2017-03-23T11:11:26.207Z,7.8
2017-03-23T11:12:28.804Z,8
2017-03-23T11:13:30.884Z,8
2017-03-23T11:14:33.735Z,8.1
2017-03-23T11:15:36.589Z,8.1
2017-03-23T11:16:38.933Z,8.1
2017-03-23T11:17:42.033Z,8.2
2017-03-23T11:18:44.378Z,8.2
2017-03-23T11:19:46.727Z,8.1
2017-03-23T11:20:49.440Z,8.3
2017-03-23T11:21:52.298Z,8.3
2017-03-23T11:22:54.895Z,8.3
2017-03-23T11:23:57.238Z,8.1
2017-03-23T11:25:00.089Z,8.1
2017-03-23T11:26:02.440Z,8.3
2017-03-23T11:27:05.295Z,8.1
2017-03-23T11:28:07.866Z,8
2017-03-23T11:29:10.217Z,8.1
2017-03-23T11:30:13.068Z,8.5
2017-03-23T11:31:15.419Z,8.5
2017-03-23T11:32:18.271Z,8.5
2017-03-23T11:33:20.871Z,8.6
2017-03-23T11:34:23.085Z,8.6
2017-03-23T11:35:25.939Z,8.7
2017-03-23T11:36:28.791Z,8.9
2017-03-23T11:38:34.168Z,9.2
2017-03-23T11:39:36.513Z,9.2
2017-03-23T11:40:38.865Z,9.2
2017-03-23T11:41:41.765Z,9.3
2017-03-23T11:42:44.103Z,9.1
2017-03-23T11:43:47.258Z,9
2017-03-23T11:44:49.338Z,9
2017-03-23T11:45:52.056Z,9.1
2017-03-23T11:46:54.903Z,9
2017-03-23T11:47:57.253Z,8.8
2017-03-23T11:49:00.402Z,8.8
2017-03-23T11:49:43.120Z,8.8
2017-03-23T11:50:13.683Z,8.8
2017-03-23T11:51:05.459Z,8.8
2017-03-23T11:52:07.672Z,8.8
2017-03-23T11:53:10.381Z,8.9
2017-03-23T11:54:13.398Z,8.9
2017-03-23T11:55:15.608Z,9.1
2017-03-23T11:56:18.326Z,9.3
2017-03-23T11:57:20.949Z,9.3
2017-03-23T11:59:26.756Z,9.3
2017-03-23T12:00:28.472Z,9.2
2017-03-23T12:01:31.323Z,9.2
2017-03-23T12:02:33.728Z,9.1
2017-03-23T12:03:36.444Z,9.1
2017-03-23T12:05:42.320Z,9.1
2017-03-23T12:06:44.398Z,9.3
2017-03-23T12:07:47.272Z,9.3
2017-03-23T12:08:49.484Z,9.5
2017-03-23T12:09:52.200Z,9.5
2017-03-23T12:10:55.304Z,9.6
2017-03-23T12:11:57.652Z,9.7
2017-03-23T12:13:00.002Z,9.6
2017-03-23T12:14:02.851Z,9.8
2017-03-23T12:15:05.202Z,9.9
2017-03-23T12:16:08.168Z,10.1
2017-03-23T12:17:10.569Z,9.8
2017-03-23T12:18:13.420Z,10
2017-03-23T12:19:15.766Z,10
2017-03-23T12:20:18.478Z,9.8
2017-03-23T12:21:21.575Z,9.9
2017-03-23T12:22:23.653Z,9.7
2017-03-23T12:23:26.368Z,9.8
2017-03-23T12:25:31.351Z,10
2017-03-23T12:26:34.502Z,10.1
2017-03-23T12:27:36.712Z,9.7
2017-03-23T12:28:39.557Z,9.6
2017-03-23T12:29:42.271Z,9.6
2017-03-23T12:30:44.621Z,9.6
2017-03-23T12:31:47.722Z,9.4
2017-03-23T12:32:49.931Z,9.5
2017-03-23T12:33:52.779Z,9.3
2017-03-23T12:34:55.125Z,9.1
2017-03-23T12:35:57.710Z,9
2017-03-23T12:37:00.815Z,9
2017-03-23T12:38:03.025Z,8.9
2017-03-23T12:39:05.937Z,9
2017-03-23T12:40:08.281Z,9
2017-03-23T12:41:11.138Z,8.9
2017-03-23T12:42:13.598Z,8.8
2017-03-23T12:43:16.003Z,8.7
2017-03-23T12:44:18.859Z,8.5
2017-03-23T12:45:21.706Z,8.5
2017-03-23T12:46:24.532Z,8.4
2017-03-23T12:47:27.131Z,8.3
2017-03-23T12:49:31.881Z,8.3
2017-03-23T12:50:34.602Z,8.4
2017-03-23T12:51:36.814Z,8.4
2017-03-23T12:52:39.831Z,8.4
2017-03-23T12:54:45.085Z,8.4
2017-03-23T12:55:47.430Z,8.4
2017-03-23T12:56:50.012Z,8.3
2017-03-23T12:57:53.113Z,8.2
2017-03-23T12:58:55.458Z,8.2
2017-03-23T12:59:58.876Z,8.1
2017-03-23T13:01:00.722Z,8.2
2017-03-23T13:02:02.994Z,8.2
2017-03-23T13:03:06.668Z,8.3
2017-03-23T13:04:08.509Z,8.3
2017-03-23T13:05:11.354Z,8.2
2017-03-23T13:06:13.644Z,8.3
2017-03-23T13:07:16.356Z,8.3
2017-03-23T13:08:19.511Z,8.4
2017-03-23T13:09:21.853Z,8.5
2017-03-23T13:10:24.066Z,8.6
2017-03-23T13:11:26.921Z,8.8
2017-03-23T13:12:29.640Z,8.8
2017-03-23T13:13:32.238Z,8.9
2017-03-23T13:15:37.494Z,9.1
2017-03-23T13:16:40.209Z,9.3
2017-03-23T13:17:42.554Z,9.5
2017-03-23T13:18:45.520Z,9.5
2017-03-23T13:20:50.781Z,9.5
2017-03-23T13:21:53.130Z,9.1
2017-03-23T13:22:55.972Z,9.1
2017-03-23T13:23:58.494Z,9.2
2017-03-23T13:25:00.569Z,9.2
2017-03-23T13:26:03.922Z,9.2
2017-03-23T13:27:06.269Z,9.3
2017-03-23T13:28:09.124Z,9.4
2017-03-23T13:29:11.716Z,9.5
2017-03-23T13:30:14.129Z,9.5
2017-03-23T13:31:16.978Z,9.6
2017-03-23T13:32:19.325Z,9.6
2017-03-23T13:33:22.237Z,9.6
2017-03-23T13:34:24.875Z,9.7
2017-03-23T13:35:27.219Z,9.8
2017-03-23T13:36:29.803Z,9.7
2017-03-23T13:37:32.653Z,9.7
2017-03-23T13:38:35.365Z,9.6
2017-03-23T13:39:37.963Z,9.5
2017-03-23T13:40:40.314Z,9.5
2017-03-23T13:41:43.167Z,9.5
2017-03-23T13:42:45.883Z,9.6
2017-03-23T13:43:48.232Z,9.7
2017-03-23T13:44:51.199Z,9.6
2017-03-23T13:45:53.549Z,9.6
2017-03-23T13:46:56.262Z,9.6
2017-03-23T13:47:58.843Z,9.8
2017-03-23T13:49:01.694Z,9.8
2017-03-23T13:50:04.158Z,9.9
2017-03-23T13:51:07.008Z,9.8
2017-03-23T13:52:09.351Z,10
2017-03-23T13:53:12.197Z,10
2017-03-23T13:54:14.922Z,10.1
2017-03-23T13:55:17.530Z,10.1
2017-03-23T13:56:19.885Z,10
2017-03-23T13:57:22.469Z,9.9
2017-03-23T13:58:25.317Z,10
2017-03-23T13:59:28.166Z,10
2017-03-23T14:00:30.767Z,9.9
2017-03-23T14:01:33.121Z,9.8
2017-03-23T14:02:35.833Z,9.8
2017-03-23T14:03:38.544Z,9.5
2017-03-23T14:04:41.964Z,9.6
2017-03-23T14:05:44.110Z,9.6
2017-03-23T14:06:46.462Z,9.6
2017-03-23T14:07:49.178Z,9.8
2017-03-23T14:08:52.026Z,9.7
2017-03-23T14:09:54.370Z,9.6
2017-03-23T14:10:57.337Z,9.6
2017-03-23T14:11:59.546Z,9.6
2017-03-23T14:13:02.390Z,9.6
2017-03-23T14:14:05.237Z,9.6
2017-03-23T14:16:10.748Z,9.6
2017-03-23T14:17:12.824Z,9.6
2017-03-23T14:18:15.674Z,9.6
2017-03-23T14:19:17.881Z,9.6
2017-03-23T14:20:20.597Z,9.6
2017-03-23T14:21:23.704Z,9.5
2017-03-23T14:22:26.049Z,9.5
2017-03-23T14:23:28.901Z,9.4
2017-03-23T14:24:31.617Z,9.5
2017-03-23T14:25:33.966Z,9.4
2017-03-23T14:26:37.147Z,9.5
2017-03-23T14:27:39.356Z,9.4
2017-03-23T14:28:42.207Z,9.3
2017-03-23T14:29:44.552Z,9.2
2017-03-23T14:30:47.399Z,9.3
2017-03-23T14:31:50.001Z,9.2
2017-03-23T14:32:52.346Z,9.2
2017-03-23T14:33:55.191Z,9.1
2017-03-23T14:34:58.046Z,9.1
2017-03-23T14:36:00.253Z,9.1
2017-03-23T14:37:03.086Z,9
2017-03-23T14:38:05.673Z,8.8
2017-03-23T14:39:08.520Z,8.8
2017-03-23T14:40:10.864Z,8.7
2017-03-23T14:41:13.715Z,8.7
2017-03-23T14:42:16.315Z,8.7
2017-03-23T14:44:21.565Z,8.7
2017-03-23T14:45:24.423Z,8.8
2017-03-23T14:46:26.637Z,8.8
2017-03-23T14:47:29.606Z,8.9
2017-03-23T14:48:31.951Z,8.9
2017-03-23T14:49:34.807Z,8.9
2017-03-23T14:50:37.521Z,8.9
2017-03-23T14:51:39.873Z,8.8
2017-03-23T14:52:42.841Z,8.8
2017-03-23T14:53:45.187Z,8.7
2017-03-23T14:54:48.074Z,8.7
2017-03-23T14:55:50.799Z,8.7
2017-03-23T14:56:53.146Z,8.7
2017-03-23T14:57:56.163Z,8.7
2017-03-23T14:58:58.510Z,8.6
2017-03-23T15:00:01.357Z,8.6
2017-03-23T15:01:03.582Z,8.6
2017-03-23T15:02:06.433Z,8.6
2017-03-23T15:03:09.450Z,8.6
2017-03-23T15:04:11.661Z,8.7
2017-03-23T15:05:14.511Z,8.7
2017-03-23T15:06:16.861Z,8.7
2017-03-23T15:07:19.716Z,8.7
2017-03-23T15:08:22.367Z,8.7
2017-03-23T15:09:25.090Z,8.6
2017-03-23T15:10:27.173Z,8.6
2017-03-23T15:11:29.888Z,8.6
2017-03-23T15:12:32.739Z,8.6
2017-03-23T15:13:35.756Z,8.6
2017-03-23T15:14:38.105Z,8.6
2017-03-23T15:15:40.313Z,8.5
2017-03-23T15:16:43.159Z,8.5
2017-03-23T15:17:46.010Z,8.3
2017-03-23T15:18:48.610Z,8.3
2017-03-23T15:19:51.459Z,8.3
2017-03-23T15:20:53.808Z,8.3
2017-03-23T15:21:56.656Z,8.3
2017-03-23T15:22:58.998Z,8.3
2017-03-23T15:24:02.101Z,8.3
2017-03-23T15:25:04.450Z,8.3
2017-03-23T15:26:06.800Z,8.3
2017-03-23T15:27:09.647Z,8.3
2017-03-23T15:28:12.497Z,8.3
2017-03-23T15:29:15.094Z,8.3
2017-03-23T15:30:17.442Z,8.3
2017-03-23T15:31:20.293Z,8.4
2017-03-23T15:32:22.646Z,8.5
2017-03-23T15:33:25.358Z,8.5
2017-03-23T15:34:28.393Z,8.6
2017-03-23T15:35:30.743Z,8.6
2017-03-23T15:36:33.090Z,8.6
2017-03-23T15:37:35.939Z,8.6
2017-03-23T15:38:38.787Z,8.6
2017-03-23T15:39:41.431Z,8.6
2017-03-23T15:40:43.506Z,8.6
2017-03-23T15:41:46.353Z,8.6
2017-03-23T15:42:49.069Z,8.6
2017-03-23T15:43:51.910Z,8.6
2017-03-23T15:45:57.410Z,8.6
2017-03-23T15:46:59.754Z,8.5
2017-03-23T15:48:02.100Z,8.5
2017-03-23T15:49:04.955Z,8.5
2017-03-23T15:50:08.232Z,8.4
2017-03-23T15:51:10.337Z,8.3
2017-03-23T15:52:12.546Z,8.2
2017-03-23T15:53:15.954Z,8.1
2017-03-23T15:54:18.302Z,8.1
2017-03-23T15:55:20.648Z,8.1
2017-03-23T15:56:23.802Z,8.1
2017-03-23T15:57:26.148Z,8.1
2017-03-23T15:58:28.491Z,8.1
2017-03-23T15:58:59.182Z,8.1
2017-03-23T15:59:31.330Z,8.1
2017-03-23T16:00:01.976Z,8.1
2017-03-23T16:00:33.490Z,8.1
2017-03-23T16:01:04.557Z,8.1
2017-03-23T16:01:36.828Z,8
2017-03-23T16:02:06.834Z,8
2017-03-23T16:02:39.260Z,8.1
2017-03-23T16:03:41.605Z,8.1
2017-03-23T16:04:44.318Z,8.1
2017-03-23T16:07:52.621Z,8.1
2017-03-23T16:08:54.982Z,8.1
2017-03-23T16:10:59.965Z,8
2017-03-23T16:12:02.815Z,8
2017-03-23T16:13:05.413Z,8
2017-03-23T16:14:07.629Z,8
2017-03-23T16:15:10.345Z,8
2017-03-23T16:16:13.125Z,7.9
2017-03-23T16:17:15.974Z,7.8
2017-03-23T16:18:18.569Z,7.8
2017-03-23T16:19:20.644Z,7.8
2017-03-23T16:20:23.497Z,7.8
2017-03-23T16:21:26.346Z,7.8